createdAt,value
2023-05-22T00:01:49.473Z,47.47
2023-05-22T00:04:21.595Z,41.97
2023-05-22T00:06:49.376Z,40.97
2023-05-22T00:09:16.449Z,49.40
2023-05-22T00:11:43.260Z,40.43
2023-05-22T00:14:10.303Z,41.83
2023-05-22T00:16:37.224Z,39.73
2023-05-22T00:19:04.444Z,37.57
2023-05-22T00:21:35.086Z,39.00
2023-05-22T00:24:02.287Z,37.13
2023-05-22T00:26:29.120Z,36.73
2023-05-22T00:28:56.043Z,36.93
2023-05-22T00:31:23.234Z,35.13
2023-05-22T00:33:50.755Z,39.43
2023-05-22T00:36:18.797Z,34.23
2023-05-22T00:38:46.393Z,34.53
2023-05-22T00:41:13.411Z,34.13
2023-05-22T00:43:41.315Z,32.60
2023-05-22T00:46:08.231Z,32.80
2023-05-22T00:48:35.077Z,33.80
2023-05-22T00:51:02.312Z,30.27
2023-05-22T00:53:31.055Z,29.37
2023-05-22T00:55:59.498Z,31.90
2023-05-22T00:58:27.261Z,30.63
2023-05-22T01:00:55.382Z,28.53
2023-05-22T01:03:26.989Z,29.90
2023-05-22T01:05:55.136Z,29.10
2023-05-22T01:08:22.159Z,26.90
2023-05-22T01:10:54.552Z,27.37
2023-05-22T01:13:58.482Z,25.80
2023-05-22T01:16:36.171Z,27.63
2023-05-22T01:19:22.436Z,25.90
2023-05-22T01:22:14.015Z,26.23
2023-05-22T01:25:18.857Z,26.90
2023-05-22T01:28:00.537Z,26.67
2023-05-22T01:31:06.511Z,27.47
2023-05-22T01:33:41.671Z,28.23
2023-05-22T01:36:09.762Z,28.80
2023-05-22T01:38:36.929Z,27.53
2023-05-22T01:41:04.508Z,30.23
2023-05-22T01:43:31.246Z,29.63
2023-05-22T01:45:58.107Z,29.07
2023-05-22T01:48:24.867Z,29.83
2023-05-22T01:50:53.606Z,30.43
2023-05-22T01:53:36.923Z,30.40
2023-05-22T01:56:09.240Z,30.43
2023-05-22T01:59:01.483Z,30.53
2023-05-22T02:01:31.792Z,30.27
2023-05-22T02:03:58.885Z,30.00
2023-05-22T02:06:28.770Z,37.10
2023-05-22T02:08:56.027Z,29.80
2023-05-22T02:11:27.587Z,36.17
2023-05-22T02:13:55.688Z,29.13
2023-05-22T02:16:23.367Z,33.10
2023-05-22T02:18:51.352Z,30.10
2023-05-22T02:21:18.095Z,32.37
2023-05-22T02:23:44.946Z,32.97
2023-05-22T02:26:11.685Z,32.90
2023-05-22T02:28:38.399Z,31.70
2023-05-22T02:31:05.722Z,32.60
2023-05-22T02:33:32.499Z,33.37
2023-05-22T02:35:59.237Z,32.93
2023-05-22T02:38:25.945Z,34.97
2023-05-22T02:40:52.729Z,40.90
2023-05-22T02:43:19.463Z,39.33
2023-05-22T02:45:46.396Z,43.63
2023-05-22T02:48:13.292Z,35.20
2023-05-22T02:50:40.368Z,36.37
2023-05-22T02:53:08.395Z,37.77
2023-05-22T02:55:35.196Z,37.80
2023-05-22T02:58:02.893Z,38.17
2023-05-22T03:00:29.726Z,41.00
2023-05-22T03:02:56.570Z,39.67
2023-05-22T03:05:23.430Z,37.30
2023-05-22T03:07:50.618Z,37.40
2023-05-22T03:10:17.430Z,42.73
2023-05-22T03:12:44.213Z,37.30
2023-05-22T03:15:11.617Z,62.20
2023-05-22T03:17:38.387Z,41.73
2023-05-22T03:20:06.817Z,44.90
2023-05-22T03:22:33.577Z,50.90
2023-05-22T03:25:00.445Z,51.20
2023-05-22T03:27:27.251Z,43.43
2023-05-22T03:29:54.014Z,47.47
2023-05-22T03:32:20.718Z,54.53
2023-05-22T03:34:47.483Z,51.53
2023-05-22T03:37:14.236Z,51.47
2023-05-22T03:39:41.078Z,54.13
2023-05-22T03:42:07.820Z,47.20
2023-05-22T03:44:34.568Z,52.93
2023-05-22T03:47:01.313Z,49.20
2023-05-22T03:49:28.064Z,50.50
2023-05-22T03:51:54.808Z,46.23
2023-05-22T03:54:21.726Z,49.90
2023-05-22T03:56:48.463Z,51.17
2023-05-22T03:59:15.221Z,49.73
2023-05-22T04:01:42.152Z,48.17
2023-05-22T04:04:09.596Z,55.30
2023-05-22T04:06:42.954Z,45.03
2023-05-22T04:09:11.786Z,44.40
2023-05-22T04:11:42.654Z,43.40
2023-05-22T04:14:09.788Z,46.47
2023-05-22T04:16:36.591Z,43.20
2023-05-22T04:19:03.750Z,38.30
2023-05-22T04:21:34.452Z,40.50
2023-05-22T04:24:02.646Z,37.60
2023-05-22T04:26:32.005Z,37.60
2023-05-22T04:28:58.764Z,35.57
2023-05-22T04:31:25.602Z,34.50
2023-05-22T04:33:52.331Z,34.97
2023-05-22T04:36:22.276Z,38.70
2023-05-22T04:38:50.273Z,35.50
2023-05-22T04:41:22.624Z,40.40
2023-05-22T04:43:49.896Z,38.80
2023-05-22T04:46:16.780Z,38.27
2023-05-22T04:48:43.604Z,39.30
2023-05-22T04:51:10.508Z,40.57
2023-05-22T04:56:06.301Z,37.23
2023-05-22T04:58:33.342Z,44.83
2023-05-22T05:01:00.188Z,40.70
2023-05-22T05:03:28.458Z,40.00
2023-05-22T05:05:56.717Z,42.33
2023-05-22T05:08:23.503Z,46.50
2023-05-22T05:10:50.582Z,46.27
2023-05-22T05:13:17.311Z,42.63
2023-05-22T05:15:44.146Z,42.47
2023-05-22T05:18:11.496Z,38.43
2023-05-22T05:20:38.527Z,45.67
2023-05-22T05:23:05.522Z,49.47
2023-05-22T05:25:32.276Z,52.47
2023-05-22T05:27:59.308Z,43.47
2023-05-22T05:30:26.140Z,46.77
2023-05-22T05:32:52.923Z,41.50
2023-05-22T05:35:19.899Z,43.93
2023-05-22T05:37:46.638Z,42.90
2023-05-22T05:40:13.845Z,42.20
2023-05-22T05:42:40.562Z,46.50
2023-05-22T05:45:07.734Z,42.70
2023-05-22T05:47:34.942Z,46.03
2023-05-22T05:50:01.934Z,46.87
2023-05-22T05:52:32.573Z,48.20
2023-05-22T05:55:00.960Z,54.00
2023-05-22T05:57:28.696Z,47.80
2023-05-22T05:59:55.422Z,47.47
2023-05-22T06:02:22.400Z,53.43
2023-05-22T06:04:49.368Z,45.27
2023-05-22T06:07:16.416Z,51.63
2023-05-22T06:09:43.139Z,52.27
2023-05-22T06:12:12.812Z,52.77
2023-05-22T06:14:42.737Z,54.30
2023-05-22T06:17:09.548Z,60.10
2023-05-22T06:19:36.614Z,54.67
2023-05-22T06:22:03.564Z,54.70
2023-05-22T06:24:31.910Z,57.83
2023-05-22T06:26:58.708Z,60.47
2023-05-22T06:29:25.469Z,61.10
2023-05-22T06:31:52.301Z,56.97
2023-05-22T06:34:19.104Z,60.50
2023-05-22T06:36:46.054Z,57.67
2023-05-22T06:39:12.871Z,54.40
2023-05-22T06:41:39.610Z,59.83
2023-05-22T06:44:06.780Z,60.50
2023-05-22T06:46:33.559Z,60.47
2023-05-22T06:49:00.401Z,61.13
2023-05-22T06:51:27.224Z,64.00
2023-05-22T06:53:53.934Z,64.40
2023-05-22T06:56:20.784Z,62.93
2023-05-22T06:58:47.490Z,64.37
2023-05-22T07:01:14.445Z,63.67
2023-05-22T07:03:41.184Z,63.00
2023-05-22T07:06:08.320Z,65.50
2023-05-22T07:08:35.128Z,68.23
2023-05-22T07:11:02.073Z,71.00
2023-05-22T07:13:32.048Z,70.30
2023-05-22T07:15:59.285Z,62.07
2023-05-22T07:18:26.059Z,77.47
2023-05-22T07:20:52.862Z,72.90
2023-05-22T07:23:19.754Z,65.70
2023-05-22T07:25:46.819Z,71.93
2023-05-22T07:28:13.523Z,75.27
2023-05-22T07:30:40.472Z,69.23
2023-05-22T07:33:07.432Z,75.47
2023-05-22T07:35:35.022Z,72.50
2023-05-22T07:38:01.863Z,68.47
2023-05-22T07:40:28.746Z,72.23
2023-05-22T07:42:55.780Z,74.13
2023-05-22T07:45:22.542Z,70.17
2023-05-22T07:47:49.272Z,69.93
2023-05-22T07:50:16.264Z,73.83
2023-05-22T07:52:43.759Z,76.57
2023-05-22T07:55:10.589Z,78.53
2023-05-22T07:57:38.430Z,78.00
2023-05-22T08:00:14.614Z,82.00
2023-05-22T08:02:41.825Z,80.97
2023-05-22T08:05:09.635Z,75.63
2023-05-22T08:07:37.068Z,89.90
2023-05-22T08:10:07.864Z,78.87
2023-05-22T08:12:34.734Z,84.80
2023-05-22T08:15:01.465Z,81.90
2023-05-22T08:17:28.271Z,76.40
2023-05-22T08:19:55.159Z,81.43
2023-05-22T08:22:21.965Z,85.90
2023-05-22T08:24:48.686Z,71.90
2023-05-22T08:27:15.493Z,69.83
2023-05-22T08:29:42.305Z,75.90
2023-05-22T08:32:09.150Z,77.27
2023-05-22T08:34:36.145Z,77.90
2023-05-22T08:37:03.022Z,79.27
2023-05-22T08:39:30.796Z,78.17
2023-05-22T08:41:58.029Z,75.43
2023-05-22T08:44:25.304Z,74.37
2023-05-22T08:46:53.599Z,81.10
2023-05-22T08:49:23.930Z,77.10
2023-05-22T08:51:56.167Z,77.27
2023-05-22T08:54:26.485Z,73.83
2023-05-22T08:56:57.168Z,69.50
2023-05-22T08:59:24.543Z,79.77
2023-05-22T09:01:52.830Z,75.30
2023-05-22T09:04:23.672Z,78.93
2023-05-22T09:06:50.743Z,76.83
2023-05-22T09:09:17.880Z,79.70
2023-05-22T09:11:44.672Z,80.40
2023-05-22T09:14:12.663Z,81.77
2023-05-22T09:16:51.509Z,89.70
2023-05-22T09:19:18.477Z,81.00
2023-05-22T09:21:45.271Z,66.87
2023-05-22T09:24:12.141Z,67.47
2023-05-22T09:26:39.643Z,57.60
2023-05-22T09:29:07.503Z,54.37
2023-05-22T09:31:41.840Z,49.93
2023-05-22T09:34:10.571Z,44.73
2023-05-22T09:36:37.378Z,44.70
2023-05-22T09:39:04.662Z,44.50
2023-05-22T09:41:35.842Z,56.33
2023-05-22T09:44:06.945Z,66.67
2023-05-22T09:46:40.211Z,49.90
2023-05-22T09:49:07.010Z,43.70
2023-05-22T09:51:37.505Z,52.30
2023-05-22T09:54:06.803Z,51.93
2023-05-22T09:56:39.680Z,51.47
2023-05-22T09:59:09.557Z,49.73
2023-05-22T10:01:38.663Z,63.03
2023-05-22T10:04:07.795Z,49.40
2023-05-22T10:06:37.021Z,52.93
2023-05-22T10:09:09.182Z,57.40
2023-05-22T10:11:36.794Z,58.23
2023-05-22T10:14:05.104Z,50.50
2023-05-22T10:16:34.154Z,64.17
2023-05-22T10:19:01.374Z,54.17
2023-05-22T10:21:30.173Z,53.60
2023-05-22T10:23:57.890Z,63.20
2023-05-22T10:26:26.069Z,62.57
2023-05-22T10:29:05.004Z,65.07
2023-05-22T10:32:09.826Z,64.80
2023-05-22T10:34:49.018Z,60.60
2023-05-22T10:37:31.261Z,73.20
2023-05-22T10:40:07.426Z,57.40
2023-05-22T10:42:34.586Z,57.50
2023-05-22T10:45:01.810Z,70.40
2023-05-22T10:47:28.766Z,58.53
2023-05-22T10:50:09.693Z,67.17
2023-05-22T10:52:36.881Z,61.70
2023-05-22T10:55:08.774Z,60.87
2023-05-22T10:57:39.617Z,59.67
2023-05-22T11:00:10.910Z,62.50
2023-05-22T11:02:46.899Z,58.03
2023-05-22T11:05:22.551Z,57.63
2023-05-22T11:07:49.300Z,64.17
2023-05-22T11:10:51.902Z,61.67
2023-05-22T11:13:18.805Z,60.03
2023-05-22T11:15:46.838Z,64.97
2023-05-22T11:18:17.024Z,59.73
2023-05-22T11:20:44.441Z,60.90
2023-05-22T11:23:11.724Z,56.40
2023-05-22T11:25:41.100Z,58.60
2023-05-22T11:28:10.593Z,48.77
2023-05-22T11:30:38.209Z,54.00
2023-05-22T11:33:06.587Z,55.90
2023-05-22T11:35:33.968Z,56.37
2023-05-22T11:38:05.061Z,59.73
2023-05-22T11:40:31.850Z,63.73
2023-05-22T11:42:58.712Z,65.23
2023-05-22T11:45:25.898Z,63.00
2023-05-22T11:47:53.042Z,62.47
2023-05-22T11:50:33.461Z,53.73
2023-05-22T11:53:07.451Z,54.77
2023-05-22T11:55:34.814Z,55.17
2023-05-22T11:58:02.743Z,55.90
2023-05-22T12:00:31.176Z,50.40
2023-05-22T12:02:58.593Z,51.03
2023-05-22T12:05:25.601Z,49.27
2023-05-22T12:07:52.851Z,47.97
2023-05-22T12:10:19.811Z,45.40
2023-05-22T12:12:48.040Z,49.97
2023-05-22T12:15:21.329Z,46.50
2023-05-22T12:17:48.141Z,48.90
2023-05-22T12:20:15.028Z,47.80
2023-05-22T12:22:43.474Z,49.33
2023-05-22T12:25:24.928Z,45.43
2023-05-22T12:27:51.793Z,47.27
2023-05-22T12:30:19.135Z,42.50
2023-05-22T12:32:50.164Z,51.43
2023-05-22T12:35:17.601Z,52.40
2023-05-22T12:37:53.495Z,52.67
2023-05-22T12:40:20.448Z,47.03
2023-05-22T12:42:48.468Z,49.83
2023-05-22T12:45:17.687Z,49.33
2023-05-22T12:47:44.677Z,61.20
2023-05-22T12:50:11.634Z,52.93
2023-05-22T12:52:38.526Z,46.10
2023-05-22T12:55:05.789Z,48.23
2023-05-22T12:57:32.672Z,48.70
2023-05-22T12:59:59.565Z,52.20
2023-05-22T13:02:26.749Z,42.93
2023-05-22T13:04:53.611Z,44.33
2023-05-22T13:07:20.565Z,47.23
2023-05-22T13:09:47.385Z,41.73
2023-05-22T13:12:14.287Z,39.13
2023-05-22T13:14:41.092Z,44.33
2023-05-22T13:17:08.189Z,46.37
2023-05-22T13:19:35.238Z,38.80
2023-05-22T13:22:02.044Z,43.03
2023-05-22T13:24:28.742Z,40.30
2023-05-22T13:26:55.589Z,40.50
2023-05-22T13:29:22.306Z,44.10
2023-05-22T13:31:49.074Z,38.53
2023-05-22T13:34:16.074Z,43.07
2023-05-22T13:36:43.023Z,42.30
2023-05-22T13:39:09.865Z,42.37
2023-05-22T13:41:36.647Z,49.10
2023-05-22T13:44:03.394Z,43.60
2023-05-22T13:46:30.257Z,45.57
2023-05-22T13:48:56.996Z,53.43
2023-05-22T13:51:23.839Z,46.37
2023-05-22T13:53:50.613Z,45.50
2023-05-22T13:56:17.425Z,48.80
2023-05-22T13:58:44.167Z,48.53
2023-05-22T14:01:10.948Z,49.77
2023-05-22T14:03:37.846Z,49.10
2023-05-22T14:06:04.921Z,48.22
2023-05-22T14:08:31.691Z,49.67
2023-05-22T14:10:58.517Z,51.57
2023-05-22T14:13:25.277Z,58.77
2023-05-22T14:15:52.054Z,52.58
2023-05-22T14:18:18.940Z,46.67
2023-05-22T14:20:46.496Z,52.93
2023-05-22T14:23:14.138Z,56.83
2023-05-22T14:25:43.036Z,55.90
2023-05-22T14:28:10.930Z,54.83
2023-05-22T14:30:37.885Z,59.67
2023-05-22T14:33:05.482Z,54.40
2023-05-22T14:35:33.240Z,58.03
2023-05-22T14:38:00.152Z,63.03
2023-05-22T14:40:26.911Z,60.57
2023-05-22T14:42:54.459Z,56.83
2023-05-22T14:45:21.533Z,58.40
2023-05-22T14:47:48.405Z,52.67
2023-05-22T14:50:19.550Z,62.20
2023-05-22T14:52:47.655Z,54.27
2023-05-22T14:55:14.616Z,67.10
2023-05-22T14:57:41.488Z,63.97
2023-05-22T15:00:12.258Z,63.57
2023-05-22T15:02:40.155Z,56.30
2023-05-22T15:05:07.834Z,60.73
2023-05-22T15:07:44.112Z,56.57
2023-05-22T15:10:12.963Z,54.50
2023-05-22T15:12:39.786Z,56.87
2023-05-22T15:15:07.032Z,65.47
2023-05-22T15:17:33.771Z,63.20
2023-05-22T15:20:00.540Z,64.50
2023-05-22T15:22:27.281Z,61.87
2023-05-22T15:25:07.988Z,71.10
2023-05-22T15:27:35.612Z,66.57
2023-05-22T15:30:03.390Z,65.37
2023-05-22T15:32:33.113Z,62.00
2023-05-22T15:35:00.093Z,67.40
2023-05-22T15:37:27.896Z,67.10
2023-05-22T15:39:55.379Z,71.00
2023-05-22T15:42:22.201Z,65.80
2023-05-22T15:44:48.948Z,60.03
2023-05-22T15:47:16.676Z,73.27
2023-05-22T15:49:43.411Z,69.47
2023-05-22T15:52:10.148Z,69.17
2023-05-22T15:54:36.915Z,67.17
2023-05-22T15:57:03.812Z,62.93
2023-05-22T15:59:30.542Z,72.90
2023-05-22T16:01:57.305Z,69.77
2023-05-22T16:04:24.040Z,73.07
2023-05-22T16:06:50.887Z,69.03
2023-05-22T16:09:19.479Z,75.57
2023-05-22T16:11:46.508Z,68.30
2023-05-22T16:14:13.599Z,75.83
2023-05-22T16:16:40.837Z,66.23
2023-05-22T16:19:07.890Z,68.17
2023-05-22T16:21:34.790Z,69.87
2023-05-22T16:24:01.587Z,66.23
2023-05-22T16:26:28.311Z,67.93
2023-05-22T16:28:55.110Z,65.60
2023-05-22T16:31:22.321Z,66.10
2023-05-22T16:33:49.086Z,60.17
2023-05-22T16:36:15.867Z,69.00
2023-05-22T16:38:42.675Z,69.03
2023-05-22T16:41:09.512Z,65.60
2023-05-22T16:43:37.743Z,66.07
2023-05-22T16:46:04.609Z,66.57
2023-05-22T16:48:31.370Z,74.43
2023-05-22T16:50:58.169Z,72.43
2023-05-22T16:53:24.958Z,69.33
2023-05-22T16:55:52.850Z,65.23
2023-05-22T16:58:19.588Z,63.93
2023-05-22T17:00:46.449Z,64.20
2023-05-22T17:03:14.098Z,71.10
2023-05-22T17:05:41.581Z,65.87
2023-05-22T17:08:08.816Z,64.73
2023-05-22T17:10:35.888Z,70.60
2023-05-22T17:13:03.003Z,66.40
2023-05-22T17:15:29.808Z,64.90
2023-05-22T17:17:57.062Z,68.77
2023-05-22T17:20:23.939Z,57.67
2023-05-22T17:22:50.732Z,57.33
2023-05-22T17:25:17.613Z,61.03
2023-05-22T17:27:45.077Z,58.67
2023-05-22T17:30:12.702Z,54.43
2023-05-22T17:32:39.710Z,54.87
2023-05-22T17:35:07.106Z,58.70
2023-05-22T17:37:34.347Z,60.03
2023-05-22T17:40:01.162Z,64.67
2023-05-22T17:42:28.082Z,59.03
2023-05-22T17:44:54.881Z,54.93
2023-05-22T17:47:21.824Z,57.97
2023-05-22T17:49:48.823Z,59.60
2023-05-22T17:52:15.667Z,50.00
2023-05-22T17:54:42.594Z,50.60
2023-05-22T17:57:09.546Z,51.43
2023-05-22T17:59:38.463Z,56.00
2023-05-22T18:02:07.920Z,58.63
2023-05-22T18:04:34.666Z,48.77
2023-05-22T18:07:01.493Z,50.63
2023-05-22T18:09:28.226Z,50.40
2023-05-22T18:11:54.969Z,50.63
2023-05-22T18:14:21.702Z,51.57
2023-05-22T18:16:48.480Z,45.20
2023-05-22T18:19:15.342Z,36.47
2023-05-22T18:21:42.255Z,36.47
2023-05-22T18:24:09.288Z,24.50
2023-05-22T18:26:36.040Z,22.93
2023-05-22T18:29:02.811Z,16.60
2023-05-22T18:31:29.676Z,15.03
2023-05-22T18:33:56.581Z,15.50
2023-05-22T18:36:23.400Z,13.97
2023-05-22T18:38:50.238Z,12.93
2023-05-22T18:41:17.017Z,11.57
2023-05-22T18:43:43.835Z,11.47
2023-05-22T18:46:10.729Z,9.90
2023-05-22T18:48:37.495Z,9.40
2023-05-22T18:51:04.335Z,9.63
2023-05-22T18:53:31.476Z,8.87
2023-05-22T18:55:58.420Z,9.10
2023-05-22T18:58:25.583Z,9.70
2023-05-22T19:00:55.465Z,9.93
2023-05-22T19:03:22.412Z,7.60
2023-05-22T19:05:49.221Z,9.60
2023-05-22T19:08:16.032Z,8.30
2023-05-22T19:10:43.004Z,10.00
2023-05-22T19:13:09.973Z,9.03
2023-05-22T19:15:37.765Z,8.57
2023-05-22T19:18:04.705Z,9.23
2023-05-22T19:20:31.637Z,8.03
2023-05-22T19:22:58.480Z,8.30
2023-05-22T19:25:25.318Z,9.53
2023-05-22T19:27:52.209Z,10.67
2023-05-22T19:30:19.178Z,8.70
2023-05-22T19:32:46.841Z,9.27
2023-05-22T19:35:13.618Z,9.50
2023-05-22T19:37:40.503Z,9.27
2023-05-22T19:40:09.656Z,9.13
2023-05-22T19:42:38.894Z,8.43
2023-05-22T19:45:06.242Z,9.67
2023-05-22T19:47:33.065Z,9.23
2023-05-22T19:49:59.954Z,9.20
2023-05-22T19:52:26.861Z,10.50
2023-05-22T19:54:53.642Z,11.07
2023-05-22T19:57:20.623Z,10.07
2023-05-22T19:59:47.487Z,11.33
2023-05-22T20:02:14.261Z,11.07
2023-05-22T20:04:43.029Z,12.90
2023-05-22T20:07:10.557Z,12.00
2023-05-22T20:09:37.516Z,12.53
2023-05-22T20:12:04.567Z,12.30
2023-05-22T20:14:31.594Z,11.77
2023-05-22T20:17:03.151Z,12.40
2023-05-22T20:19:30.091Z,13.13
2023-05-22T20:21:58.436Z,14.00
2023-05-22T20:24:25.687Z,12.43
2023-05-22T20:26:52.919Z,13.03
2023-05-22T20:29:19.702Z,14.10
2023-05-22T20:31:46.812Z,13.37
2023-05-22T20:34:13.786Z,14.50
2023-05-22T20:36:42.572Z,13.43
2023-05-22T20:39:11.754Z,13.97
2023-05-22T20:41:38.632Z,14.07
2023-05-22T20:44:06.430Z,15.13
2023-05-22T20:46:33.297Z,14.67
2023-05-22T20:49:00.208Z,15.00
2023-05-22T20:51:32.364Z,14.60
2023-05-22T20:53:59.984Z,14.87
2023-05-22T20:56:27.428Z,14.80
2023-05-22T20:58:54.714Z,16.03
2023-05-22T21:01:22.153Z,15.10
2023-05-22T21:03:51.435Z,14.43
2023-05-22T21:06:19.022Z,18.63
2023-05-22T21:08:46.019Z,15.90
2023-05-22T21:11:13.014Z,16.83
2023-05-22T21:13:39.815Z,15.83
2023-05-22T21:16:06.916Z,17.03
2023-05-22T21:18:33.885Z,16.63
2023-05-22T21:21:00.762Z,15.80
2023-05-22T21:23:27.573Z,21.13
2023-05-22T21:25:54.283Z,15.67
2023-05-22T21:28:21.066Z,15.77
2023-05-22T21:30:47.877Z,15.43
2023-05-22T21:33:14.701Z,17.10
2023-05-22T21:35:41.541Z,20.70
2023-05-22T21:38:08.301Z,15.60
2023-05-22T21:40:34.997Z,16.43
2023-05-22T21:43:01.743Z,16.30
2023-05-22T21:45:28.488Z,15.03
2023-05-22T21:47:55.321Z,15.73
2023-05-22T21:50:22.317Z,15.37
2023-05-22T21:52:49.048Z,15.73
2023-05-22T21:55:15.868Z,12.87
2023-05-22T21:57:42.729Z,14.73
2023-05-22T22:00:10.098Z,12.77
2023-05-22T22:02:36.980Z,11.43
2023-05-22T22:05:04.498Z,11.73
2023-05-22T22:07:31.293Z,11.23
2023-05-22T22:09:59.295Z,11.73
2023-05-22T22:12:26.409Z,11.47
2023-05-22T22:14:53.255Z,10.03
2023-05-22T22:17:23.414Z,8.83
2023-05-22T22:19:50.580Z,9.23
2023-05-22T22:22:17.378Z,8.13
2023-05-22T22:24:45.080Z,8.50
2023-05-22T22:27:13.128Z,7.13
2023-05-22T22:29:41.730Z,6.73
2023-05-22T22:32:08.537Z,6.93
2023-05-22T22:34:35.333Z,6.97
2023-05-22T22:37:02.355Z,7.13
2023-05-22T22:39:29.127Z,6.50
2023-05-22T22:41:55.948Z,7.43
2023-05-22T22:44:22.781Z,7.80
2023-05-22T22:46:49.615Z,7.80
2023-05-22T22:49:16.376Z,6.67
2023-05-22T22:51:43.574Z,5.77
2023-05-22T22:54:10.729Z,6.70
2023-05-22T22:56:37.623Z,6.13
2023-05-22T22:59:04.382Z,6.60
2023-05-22T23:01:31.232Z,6.10
2023-05-22T23:03:58.207Z,7.40
2023-05-22T23:06:26.675Z,7.00
2023-05-22T23:08:53.468Z,7.10
2023-05-22T23:11:20.227Z,7.57
2023-05-22T23:13:47.106Z,8.10
2023-05-22T23:16:13.952Z,7.73
2023-05-22T23:18:40.689Z,8.93
2023-05-22T23:21:07.568Z,9.60
2023-05-22T23:23:34.331Z,9.90
2023-05-22T23:26:01.318Z,9.93
2023-05-22T23:28:28.137Z,9.60
2023-05-22T23:30:55.064Z,8.37
2023-05-22T23:33:21.939Z,9.77
2023-05-22T23:35:48.810Z,9.17
2023-05-22T23:38:15.731Z,8.30
2023-05-22T23:40:42.464Z,9.00
2023-05-22T23:43:09.265Z,9.53
2023-05-22T23:45:36.249Z,8.43
2023-05-22T23:48:03.007Z,8.57
2023-05-22T23:50:29.790Z,8.73
2023-05-22T23:52:56.576Z,9.30
2023-05-22T23:55:23.380Z,8.80
2023-05-22T23:57:50.126Z,8.97
